sensor_id;sensor_type;location;lat;lon;timestamp;temperature;humidity
66140;DHT22;52945;51.908;8.364;2023-07-02T00:02:37;20.00;70.80
66140;DHT22;52945;51.908;8.364;2023-07-02T00:05:37;19.90;70.90
66140;DHT22;52945;51.908;8.364;2023-07-02T00:08:38;19.90;70.90
66140;DHT22;52945;51.908;8.364;2023-07-02T00:11:43;20.00;70.80
66140;DHT22;52945;51.908;8.364;2023-07-02T00:14:44;19.90;70.80
66140;DHT22;52945;51.908;8.364;2023-07-02T00:17:44;19.90;70.80
66140;DHT22;52945;51.908;8.364;2023-07-02T00:20:45;20.00;70.90
66140;DHT22;52945;51.908;8.364;2023-07-02T00:23:46;19.90;70.90
66140;DHT22;52945;51.908;8.364;2023-07-02T00:26:47;19.90;70.70
66140;DHT22;52945;51.908;8.364;2023-07-02T00:29:48;19.90;70.70
66140;DHT22;52945;51.908;8.364;2023-07-02T00:32:48;19.90;70.70
66140;DHT22;52945;51.908;8.364;2023-07-02T00:35:49;19.90;70.70
66140;DHT22;52945;51.908;8.364;2023-07-02T00:38:49;19.90;70.80
66140;DHT22;52945;51.908;8.364;2023-07-02T00:41:50;19.90;70.80
66140;DHT22;52945;51.908;8.364;2023-07-02T00:44:51;19.90;71.00
66140;DHT22;52945;51.908;8.364;2023-07-02T00:47:54;19.90;71.00
66140;DHT22;52945;51.908;8.364;2023-07-02T00:50:56;19.90;71.00
66140;DHT22;52945;51.908;8.364;2023-07-02T00:53:57;19.90;70.90
66140;DHT22;52945;51.908;8.364;2023-07-02T00:56:58;19.90;70.90
66140;DHT22;52945;51.908;8.364;2023-07-02T01:00:03;19.80;71.10
66140;DHT22;52945;51.908;8.364;2023-07-02T01:03:03;19.80;71.10
66140;DHT22;52945;51.908;8.364;2023-07-02T01:06:04;19.80;71.20
66140;DHT22;52945;51.908;8.364;2023-07-02T01:09:05;19.80;71.20
66140;DHT22;52945;51.908;8.364;2023-07-02T01:12:08;19.80;71.00
66140;DHT22;52945;51.908;8.364;2023-07-02T01:15:09;19.70;71.00
66140;DHT22;52945;51.908;8.364;2023-07-02T01:18:10;19.80;70.90
66140;DHT22;52945;51.908;8.364;2023-07-02T01:21:11;19.70;70.80
66140;DHT22;52945;51.908;8.364;2023-07-02T01:24:12;19.70;70.90
66140;DHT22;52945;51.908;8.364;2023-07-02T01:27:15;19.70;70.90
66140;DHT22;52945;51.908;8.364;2023-07-02T01:30:15;19.70;70.90
66140;DHT22;52945;51.908;8.364;2023-07-02T01:33:16;19.70;71.10
66140;DHT22;52945;51.908;8.364;2023-07-02T01:36:17;19.70;71.20
66140;DHT22;52945;51.908;8.364;2023-07-02T01:39:17;19.70;71.10
66140;DHT22;52945;51.908;8.364;2023-07-02T01:42:18;19.70;71.20
66140;DHT22;52945;51.908;8.364;2023-07-02T01:45:19;19.70;71.30
66140;DHT22;52945;51.908;8.364;2023-07-02T01:48:19;19.70;71.40
66140;DHT22;52945;51.908;8.364;2023-07-02T01:51:20;19.70;71.40
66140;DHT22;52945;51.908;8.364;2023-07-02T01:54:22;19.70;71.40
66140;DHT22;52945;51.908;8.364;2023-07-02T01:57:23;19.70;71.50
66140;DHT22;52945;51.908;8.364;2023-07-02T02:00:23;19.60;71.70
66140;DHT22;52945;51.908;8.364;2023-07-02T02:03:25;19.60;71.60
66140;DHT22;52945;51.908;8.364;2023-07-02T02:06:25;19.60;71.70
66140;DHT22;52945;51.908;8.364;2023-07-02T02:09:26;19.60;71.80
66140;DHT22;52945;51.908;8.364;2023-07-02T02:12:28;19.60;71.90
66140;DHT22;52945;51.908;8.364;2023-07-02T02:15:30;19.60;71.90
66140;DHT22;52945;51.908;8.364;2023-07-02T02:18:31;19.60;71.90
66140;DHT22;52945;51.908;8.364;2023-07-02T02:21:32;19.50;72.10
66140;DHT22;52945;51.908;8.364;2023-07-02T02:24:33;19.60;72.20
66140;DHT22;52945;51.908;8.364;2023-07-02T02:27:33;19.50;72.30
66140;DHT22;52945;51.908;8.364;2023-07-02T02:30:34;19.50;72.30
66140;DHT22;52945;51.908;8.364;2023-07-02T02:33:34;19.50;72.30
66140;DHT22;52945;51.908;8.364;2023-07-02T02:36:35;19.50;72.40
66140;DHT22;52945;51.908;8.364;2023-07-02T02:39:36;19.50;72.30
66140;DHT22;52945;51.908;8.364;2023-07-02T02:42:38;19.50;72.40
66140;DHT22;52945;51.908;8.364;2023-07-02T02:45:39;19.50;72.50
66140;DHT22;52945;51.908;8.364;2023-07-02T02:48:39;19.50;72.40
66140;DHT22;52945;51.908;8.364;2023-07-02T02:51:40;19.50;72.40
66140;DHT22;52945;51.908;8.364;2023-07-02T02:54:40;19.50;72.30
66140;DHT22;52945;51.908;8.364;2023-07-02T02:57:41;19.50;72.40
66140;DHT22;52945;51.908;8.364;2023-07-02T03:00:43;19.50;72.30
66140;DHT22;52945;51.908;8.364;2023-07-02T03:03:46;19.40;72.40
66140;DHT22;52945;51.908;8.364;2023-07-02T03:06:46;19.50;72.20
66140;DHT22;52945;51.908;8.364;2023-07-02T03:09:47;19.50;71.90
66140;DHT22;52945;51.908;8.364;2023-07-02T03:12:47;19.40;72.00
66140;DHT22;52945;51.908;8.364;2023-07-02T03:15:48;19.40;71.90
66140;DHT22;52945;51.908;8.364;2023-07-02T03:18:48;19.40;71.90
66140;DHT22;52945;51.908;8.364;2023-07-02T03:21:49;19.50;71.80
66140;DHT22;52945;51.908;8.364;2023-07-02T03:24:50;19.50;71.70
66140;DHT22;52945;51.908;8.364;2023-07-02T03:27:50;19.50;71.60
66140;DHT22;52945;51.908;8.364;2023-07-02T03:30:51;19.40;71.40
66140;DHT22;52945;51.908;8.364;2023-07-02T03:33:51;19.40;71.40
66140;DHT22;52945;51.908;8.364;2023-07-02T03:36:52;19.50;71.30
66140;DHT22;52945;51.908;8.364;2023-07-02T03:39:52;19.40;71.20
66140;DHT22;52945;51.908;8.364;2023-07-02T03:42:53;19.40;71.00
66140;DHT22;52945;51.908;8.364;2023-07-02T03:45:53;19.40;71.00
66140;DHT22;52945;51.908;8.364;2023-07-02T03:48:54;19.40;70.80
66140;DHT22;52945;51.908;8.364;2023-07-02T03:51:54;19.40;70.70
66140;DHT22;52945;51.908;8.364;2023-07-02T03:54:55;19.30;70.60
66140;DHT22;52945;51.908;8.364;2023-07-02T03:57:55;19.30;70.50
66140;DHT22;52945;51.908;8.364;2023-07-02T04:00:56;19.30;70.70
66140;DHT22;52945;51.908;8.364;2023-07-02T04:03:56;19.40;71.40
66140;DHT22;52945;51.908;8.364;2023-07-02T04:06:57;19.30;71.40
66140;DHT22;52945;51.908;8.364;2023-07-02T04:09:58;19.30;71.70
66140;DHT22;52945;51.908;8.364;2023-07-02T04:12:58;19.40;71.80
66140;DHT22;52945;51.908;8.364;2023-07-02T04:15:59;19.40;73.50
66140;DHT22;52945;51.908;8.364;2023-07-02T04:18:59;19.20;74.20
66140;DHT22;52945;51.908;8.364;2023-07-02T04:22:00;18.90;74.30
66140;DHT22;52945;51.908;8.364;2023-07-02T04:25:00;18.80;72.40
66140;DHT22;52945;51.908;8.364;2023-07-02T04:28:01;18.70;73.10
66140;DHT22;52945;51.908;8.364;2023-07-02T04:31:01;18.60;73.40
66140;DHT22;52945;51.908;8.364;2023-07-02T04:34:02;18.50;73.90
66140;DHT22;52945;51.908;8.364;2023-07-02T04:37:04;18.40;73.90
66140;DHT22;52945;51.908;8.364;2023-07-02T04:40:06;18.30;73.70
66140;DHT22;52945;51.908;8.364;2023-07-02T04:43:12;18.30;73.60
66140;DHT22;52945;51.908;8.364;2023-07-02T04:46:13;18.30;73.40
66140;DHT22;52945;51.908;8.364;2023-07-02T04:49:13;18.30;73.40
66140;DHT22;52945;51.908;8.364;2023-07-02T04:52:15;18.20;72.50
66140;DHT22;52945;51.908;8.364;2023-07-02T04:55:15;18.20;72.10
66140;DHT22;52945;51.908;8.364;2023-07-02T04:58:16;18.20;73.00
66140;DHT22;52945;51.908;8.364;2023-07-02T05:01:16;18.20;72.60
66140;DHT22;52945;51.908;8.364;2023-07-02T05:04:17;18.20;72.40
66140;DHT22;52945;51.908;8.364;2023-07-02T05:07:18;18.20;72.60
66140;DHT22;52945;51.908;8.364;2023-07-02T05:10:18;18.20;73.00
66140;DHT22;52945;51.908;8.364;2023-07-02T05:13:19;18.10;72.70
66140;DHT22;52945;51.908;8.364;2023-07-02T05:16:19;18.20;73.80
66140;DHT22;52945;51.908;8.364;2023-07-02T05:19:20;18.20;73.80
66140;DHT22;52945;51.908;8.364;2023-07-02T05:22:20;18.20;74.10
66140;DHT22;52945;51.908;8.364;2023-07-02T05:25:21;18.20;74.10
66140;DHT22;52945;51.908;8.364;2023-07-02T05:28:21;18.30;74.80
66140;DHT22;52945;51.908;8.364;2023-07-02T05:31:22;18.30;75.10
66140;DHT22;52945;51.908;8.364;2023-07-02T05:34:22;18.30;75.10
66140;DHT22;52945;51.908;8.364;2023-07-02T05:37:23;18.30;75.00
66140;DHT22;52945;51.908;8.364;2023-07-02T05:40:23;18.40;75.00
66140;DHT22;52945;51.908;8.364;2023-07-02T05:43:24;18.40;74.90
66140;DHT22;52945;51.908;8.364;2023-07-02T05:46:25;18.40;74.90
66140;DHT22;52945;51.908;8.364;2023-07-02T05:49:25;18.50;75.30
66140;DHT22;52945;51.908;8.364;2023-07-02T05:52:26;18.50;75.00
66140;DHT22;52945;51.908;8.364;2023-07-02T05:55:27;18.50;74.60
66140;DHT22;52945;51.908;8.364;2023-07-02T05:58:27;18.60;74.40
66140;DHT22;52945;51.908;8.364;2023-07-02T06:01:30;18.60;74.30
66140;DHT22;52945;51.908;8.364;2023-07-02T06:04:30;18.60;73.40
66140;DHT22;52945;51.908;8.364;2023-07-02T06:07:31;18.70;73.80
66140;DHT22;52945;51.908;8.364;2023-07-02T06:10:31;18.70;73.30
66140;DHT22;52945;51.908;8.364;2023-07-02T06:13:32;18.70;73.10
66140;DHT22;52945;51.908;8.364;2023-07-02T06:16:33;18.70;73.00
66140;DHT22;52945;51.908;8.364;2023-07-02T06:19:35;18.70;72.70
66140;DHT22;52945;51.908;8.364;2023-07-02T06:22:36;18.70;72.10
66140;DHT22;52945;51.908;8.364;2023-07-02T06:25:36;18.70;70.70
66140;DHT22;52945;51.908;8.364;2023-07-02T06:28:38;18.70;68.90
66140;DHT22;52945;51.908;8.364;2023-07-02T06:31:38;18.70;66.70
66140;DHT22;52945;51.908;8.364;2023-07-02T06:34:39;18.70;65.00
66140;DHT22;52945;51.908;8.364;2023-07-02T06:37:39;18.70;64.30
66140;DHT22;52945;51.908;8.364;2023-07-02T06:40:40;18.70;64.60
66140;DHT22;52945;51.908;8.364;2023-07-02T06:43:42;18.80;64.70
66140;DHT22;52945;51.908;8.364;2023-07-02T06:46:46;18.80;65.40
66140;DHT22;52945;51.908;8.364;2023-07-02T06:49:46;19.00;64.00
66140;DHT22;52945;51.908;8.364;2023-07-02T06:52:47;19.00;62.60
66140;DHT22;52945;51.908;8.364;2023-07-02T06:55:47;19.10;63.60
66140;DHT22;52945;51.908;8.364;2023-07-02T06:58:48;19.00;60.90
66140;DHT22;52945;51.908;8.364;2023-07-02T07:01:49;19.10;61.50
66140;DHT22;52945;51.908;8.364;2023-07-02T07:04:50;19.10;60.30
66140;DHT22;52945;51.908;8.364;2023-07-02T07:07:51;19.10;60.00
66140;DHT22;52945;51.908;8.364;2023-07-02T07:10:51;19.10;57.10
66140;DHT22;52945;51.908;8.364;2023-07-02T07:13:52;19.10;56.70
66140;DHT22;52945;51.908;8.364;2023-07-02T07:16:52;19.10;57.20
66140;DHT22;52945;51.908;8.364;2023-07-02T07:19:53;19.20;57.90
66140;DHT22;52945;51.908;8.364;2023-07-02T07:22:53;19.20;58.10
66140;DHT22;52945;51.908;8.364;2023-07-02T07:25:54;19.10;58.50
66140;DHT22;52945;51.908;8.364;2023-07-02T07:28:54;19.20;57.70
66140;DHT22;52945;51.908;8.364;2023-07-02T07:31:56;19.20;57.90
66140;DHT22;52945;51.908;8.364;2023-07-02T07:34:56;19.40;58.80
66140;DHT22;52945;51.908;8.364;2023-07-02T07:37:57;19.50;59.30
66140;DHT22;52945;51.908;8.364;2023-07-02T07:40:58;19.60;59.80
66140;DHT22;52945;51.908;8.364;2023-07-02T07:43:58;19.60;56.40
66140;DHT22;52945;51.908;8.364;2023-07-02T07:46:59;19.60;55.70
66140;DHT22;52945;51.908;8.364;2023-07-02T07:49:59;19.60;56.30
66140;DHT22;52945;51.908;8.364;2023-07-02T07:53:00;19.60;56.20
66140;DHT22;52945;51.908;8.364;2023-07-02T07:56:00;19.60;54.90
66140;DHT22;52945;51.908;8.364;2023-07-02T07:59:01;19.70;54.20
66140;DHT22;52945;51.908;8.364;2023-07-02T08:02:02;19.80;52.80
66140;DHT22;52945;51.908;8.364;2023-07-02T08:05:03;19.90;51.20
66140;DHT22;52945;51.908;8.364;2023-07-02T08:08:04;20.00;51.80
66140;DHT22;52945;51.908;8.364;2023-07-02T08:11:04;20.10;50.20
66140;DHT22;52945;51.908;8.364;2023-07-02T08:14:05;20.10;48.90
66140;DHT22;52945;51.908;8.364;2023-07-02T08:17:06;20.10;48.60
66140;DHT22;52945;51.908;8.364;2023-07-02T08:20:06;20.20;48.40
66140;DHT22;52945;51.908;8.364;2023-07-02T08:23:10;20.20;49.20
66140;DHT22;52945;51.908;8.364;2023-07-02T08:26:11;20.20;49.60
66140;DHT22;52945;51.908;8.364;2023-07-02T08:29:12;20.30;49.40
66140;DHT22;52945;51.908;8.364;2023-07-02T08:32:13;20.40;49.80
66140;DHT22;52945;51.908;8.364;2023-07-02T08:35:14;20.50;49.20
66140;DHT22;52945;51.908;8.364;2023-07-02T08:38:14;20.60;47.90
66140;DHT22;52945;51.908;8.364;2023-07-02T08:41:15;20.60;46.30
66140;DHT22;52945;51.908;8.364;2023-07-02T08:44:20;20.70;47.70
66140;DHT22;52945;51.908;8.364;2023-07-02T08:47:22;20.70;48.20
66140;DHT22;52945;51.908;8.364;2023-07-02T08:50:23;20.70;47.40
66140;DHT22;52945;51.908;8.364;2023-07-02T08:53:24;20.70;47.90
66140;DHT22;52945;51.908;8.364;2023-07-02T08:56:33;20.80;46.60
66140;DHT22;52945;51.908;8.364;2023-07-02T08:59:35;20.80;46.80
66140;DHT22;52945;51.908;8.364;2023-07-02T09:02:36;20.90;46.00
66140;DHT22;52945;51.908;8.364;2023-07-02T09:05:48;21.00;45.10
66140;DHT22;52945;51.908;8.364;2023-07-02T09:08:49;21.10;44.50
66140;DHT22;52945;51.908;8.364;2023-07-02T09:11:50;21.20;42.20
66140;DHT22;52945;51.908;8.364;2023-07-02T09:15:01;21.30;41.80
66140;DHT22;52945;51.908;8.364;2023-07-02T09:18:02;21.30;40.70
66140;DHT22;52945;51.908;8.364;2023-07-02T09:21:02;21.30;39.80
66140;DHT22;52945;51.908;8.364;2023-07-02T09:24:12;21.40;39.60
66140;DHT22;52945;51.908;8.364;2023-07-02T09:27:13;21.30;40.40
66140;DHT22;52945;51.908;8.364;2023-07-02T09:30:15;21.40;40.50
66140;DHT22;52945;51.908;8.364;2023-07-02T09:33:19;21.30;40.40
66140;DHT22;52945;51.908;8.364;2023-07-02T09:36:19;21.20;40.40
66140;DHT22;52945;51.908;8.364;2023-07-02T09:39:24;21.20;39.90
66140;DHT22;52945;51.908;8.364;2023-07-02T09:42:26;21.20;40.50
66140;DHT22;52945;51.908;8.364;2023-07-02T09:45:28;21.40;40.80
66140;DHT22;52945;51.908;8.364;2023-07-02T09:48:29;21.70;38.40
66140;DHT22;52945;51.908;8.364;2023-07-02T09:51:33;21.90;38.60
66140;DHT22;52945;51.908;8.364;2023-07-02T09:54:35;22.00;38.50
66140;DHT22;52945;51.908;8.364;2023-07-02T09:57:36;22.20;39.30
66140;DHT22;52945;51.908;8.364;2023-07-02T10:00:38;22.20;39.90
66140;DHT22;52945;51.908;8.364;2023-07-02T10:03:38;22.20;39.20
66140;DHT22;52945;51.908;8.364;2023-07-02T10:06:55;22.00;38.60
66140;DHT22;52945;51.908;8.364;2023-07-02T10:09:56;21.90;38.90
66140;DHT22;52945;51.908;8.364;2023-07-02T10:12:57;22.00;39.70
66140;DHT22;52945;51.908;8.364;2023-07-02T10:16:05;22.10;38.60
66140;DHT22;52945;51.908;8.364;2023-07-02T10:19:10;22.10;37.60
66140;DHT22;52945;51.908;8.364;2023-07-02T10:22:11;21.90;37.40
66140;DHT22;52945;51.908;8.364;2023-07-02T10:25:11;21.90;38.80
66140;DHT22;52945;51.908;8.364;2023-07-02T10:28:20;22.00;38.80
66140;DHT22;52945;51.908;8.364;2023-07-02T10:31:23;22.00;39.40
66140;DHT22;52945;51.908;8.364;2023-07-02T10:34:33;22.20;37.70
66140;DHT22;52945;51.908;8.364;2023-07-02T10:37:37;22.40;38.00
66140;DHT22;52945;51.908;8.364;2023-07-02T10:40:38;22.60;37.00
66140;DHT22;52945;51.908;8.364;2023-07-02T10:43:38;22.70;37.00
66140;DHT22;52945;51.908;8.364;2023-07-02T10:46:46;22.70;37.70
66140;DHT22;52945;51.908;8.364;2023-07-02T10:49:46;22.60;37.50
66140;DHT22;52945;51.908;8.364;2023-07-02T10:52:48;22.60;37.30
66140;DHT22;52945;51.908;8.364;2023-07-02T10:55:57;22.70;38.20
66140;DHT22;52945;51.908;8.364;2023-07-02T10:58:58;22.70;37.40
66140;DHT22;52945;51.908;8.364;2023-07-02T11:01:58;22.60;37.80
66140;DHT22;52945;51.908;8.364;2023-07-02T11:05:03;22.50;38.80
66140;DHT22;52945;51.908;8.364;2023-07-02T11:08:08;22.50;39.10
66140;DHT22;52945;51.908;8.364;2023-07-02T11:11:09;22.60;39.10
66140;DHT22;52945;51.908;8.364;2023-07-02T11:14:09;22.70;39.90
66140;DHT22;52945;51.908;8.364;2023-07-02T11:17:10;22.70;40.20
66140;DHT22;52945;51.908;8.364;2023-07-02T11:20:12;22.90;39.80
66140;DHT22;52945;51.908;8.364;2023-07-02T11:23:22;23.00;39.50
66140;DHT22;52945;51.908;8.364;2023-07-02T11:26:22;23.00;39.80
66140;DHT22;52945;51.908;8.364;2023-07-02T11:29:24;22.80;38.70
66140;DHT22;52945;51.908;8.364;2023-07-02T11:32:24;22.80;38.70
66140;DHT22;52945;51.908;8.364;2023-07-02T11:35:34;22.90;39.10
66140;DHT22;52945;51.908;8.364;2023-07-02T11:38:36;22.90;39.80
66140;DHT22;52945;51.908;8.364;2023-07-02T11:41:42;22.90;39.30
66140;DHT22;52945;51.908;8.364;2023-07-02T11:44:43;22.90;39.90
66140;DHT22;52945;51.908;8.364;2023-07-02T11:47:43;23.00;38.30
66140;DHT22;52945;51.908;8.364;2023-07-02T11:50:44;23.10;38.80
66140;DHT22;52945;51.908;8.364;2023-07-02T11:53:44;23.00;38.50
66140;DHT22;52945;51.908;8.364;2023-07-02T11:56:45;22.90;38.40
66140;DHT22;52945;51.908;8.364;2023-07-02T11:59:46;22.90;38.60
66140;DHT22;52945;51.908;8.364;2023-07-02T12:02:47;22.80;38.30
66140;DHT22;52945;51.908;8.364;2023-07-02T12:05:48;22.80;38.40
66140;DHT22;52945;51.908;8.364;2023-07-02T12:08:49;22.80;38.30
66140;DHT22;52945;51.908;8.364;2023-07-02T12:11:49;22.80;39.20
66140;DHT22;52945;51.908;8.364;2023-07-02T12:14:50;22.70;39.60
66140;DHT22;52945;51.908;8.364;2023-07-02T12:17:50;22.70;40.20
66140;DHT22;52945;51.908;8.364;2023-07-02T12:20:51;22.70;41.00
66140;DHT22;52945;51.908;8.364;2023-07-02T12:23:51;22.70;37.40
66140;DHT22;52945;51.908;8.364;2023-07-02T12:26:52;22.70;38.00
66140;DHT22;52945;51.908;8.364;2023-07-02T12:29:53;22.90;37.90
66140;DHT22;52945;51.908;8.364;2023-07-02T12:32:53;23.00;37.90
66140;DHT22;52945;51.908;8.364;2023-07-02T12:35:54;23.10;36.50
66140;DHT22;52945;51.908;8.364;2023-07-02T12:38:54;23.20;36.20
66140;DHT22;52945;51.908;8.364;2023-07-02T12:41:55;23.30;36.40
66140;DHT22;52945;51.908;8.364;2023-07-02T12:44:55;23.30;35.30
66140;DHT22;52945;51.908;8.364;2023-07-02T12:47:56;23.40;36.10
66140;DHT22;52945;51.908;8.364;2023-07-02T12:50:58;23.40;35.30
66140;DHT22;52945;51.908;8.364;2023-07-02T12:53:59;23.50;36.10
66140;DHT22;52945;51.908;8.364;2023-07-02T12:56:59;23.60;36.20
66140;DHT22;52945;51.908;8.364;2023-07-02T13:00:00;23.70;36.90
66140;DHT22;52945;51.908;8.364;2023-07-02T13:03:00;23.80;35.30
66140;DHT22;52945;51.908;8.364;2023-07-02T13:06:01;23.80;35.60
66140;DHT22;52945;51.908;8.364;2023-07-02T13:09:02;23.80;35.40
66140;DHT22;52945;51.908;8.364;2023-07-02T13:12:03;23.80;34.80
66140;DHT22;52945;51.908;8.364;2023-07-02T13:15:04;23.80;34.50
66140;DHT22;52945;51.908;8.364;2023-07-02T13:18:05;23.90;35.10
66140;DHT22;52945;51.908;8.364;2023-07-02T13:21:05;24.00;34.50
66140;DHT22;52945;51.908;8.364;2023-07-02T13:24:06;24.20;35.30
66140;DHT22;52945;51.908;8.364;2023-07-02T13:27:11;24.30;35.30
66140;DHT22;52945;51.908;8.364;2023-07-02T13:30:12;24.20;35.60
66140;DHT22;52945;51.908;8.364;2023-07-02T13:33:13;24.30;36.40
66140;DHT22;52945;51.908;8.364;2023-07-02T13:36:14;24.30;33.60
66140;DHT22;52945;51.908;8.364;2023-07-02T13:39:14;24.20;33.50
66140;DHT22;52945;51.908;8.364;2023-07-02T13:42:15;24.30;33.60
66140;DHT22;52945;51.908;8.364;2023-07-02T13:45:16;24.30;33.70
66140;DHT22;52945;51.908;8.364;2023-07-02T13:48:17;24.20;34.20
66140;DHT22;52945;51.908;8.364;2023-07-02T13:51:17;24.30;34.20
66140;DHT22;52945;51.908;8.364;2023-07-02T13:54:18;24.50;34.20
66140;DHT22;52945;51.908;8.364;2023-07-02T13:57:19;24.50;34.60
66140;DHT22;52945;51.908;8.364;2023-07-02T14:00:19;24.50;34.80
66140;DHT22;52945;51.908;8.364;2023-07-02T14:03:20;24.40;34.40
66140;DHT22;52945;51.908;8.364;2023-07-02T14:06:21;24.40;34.80
66140;DHT22;52945;51.908;8.364;2023-07-02T14:09:22;24.30;35.50
66140;DHT22;52945;51.908;8.364;2023-07-02T14:12:22;24.30;34.70
66140;DHT22;52945;51.908;8.364;2023-07-02T14:15:24;24.60;36.20
66140;DHT22;52945;51.908;8.364;2023-07-02T14:18:25;24.60;36.10
66140;DHT22;52945;51.908;8.364;2023-07-02T14:21:26;24.60;34.80
66140;DHT22;52945;51.908;8.364;2023-07-02T14:24:26;24.60;35.20
66140;DHT22;52945;51.908;8.364;2023-07-02T14:27:27;24.60;36.80
66140;DHT22;52945;51.908;8.364;2023-07-02T14:30:28;24.60;35.70
66140;DHT22;52945;51.908;8.364;2023-07-02T14:33:30;24.70;37.20
66140;DHT22;52945;51.908;8.364;2023-07-02T14:36:31;24.90;36.90
66140;DHT22;52945;51.908;8.364;2023-07-02T14:39:32;24.80;36.60
66140;DHT22;52945;51.908;8.364;2023-07-02T14:42:33;24.80;37.00
66140;DHT22;52945;51.908;8.364;2023-07-02T14:45:33;24.70;37.70
66140;DHT22;52945;51.908;8.364;2023-07-02T14:48:34;24.70;36.20
66140;DHT22;52945;51.908;8.364;2023-07-02T14:51:35;24.70;35.70
66140;DHT22;52945;51.908;8.364;2023-07-02T14:54:35;24.70;36.30
66140;DHT22;52945;51.908;8.364;2023-07-02T14:57:36;24.70;36.30
66140;DHT22;52945;51.908;8.364;2023-07-02T15:00:43;24.70;35.80
66140;DHT22;52945;51.908;8.364;2023-07-02T15:03:44;24.70;36.20
66140;DHT22;52945;51.908;8.364;2023-07-02T15:06:45;24.50;35.10
66140;DHT22;52945;51.908;8.364;2023-07-02T15:09:46;24.40;35.40
66140;DHT22;52945;51.908;8.364;2023-07-02T15:12:46;24.50;36.10
66140;DHT22;52945;51.908;8.364;2023-07-02T15:15:48;24.40;36.30
66140;DHT22;52945;51.908;8.364;2023-07-02T15:18:49;24.50;36.40
66140;DHT22;52945;51.908;8.364;2023-07-02T15:21:50;24.50;35.80
66140;DHT22;52945;51.908;8.364;2023-07-02T15:24:50;24.50;34.90
66140;DHT22;52945;51.908;8.364;2023-07-02T15:27:51;24.60;35.10
66140;DHT22;52945;51.908;8.364;2023-07-02T15:30:57;24.40;35.30
66140;DHT22;52945;51.908;8.364;2023-07-02T15:33:58;24.20;35.50
66140;DHT22;52945;51.908;8.364;2023-07-02T15:36:59;24.40;35.80
66140;DHT22;52945;51.908;8.364;2023-07-02T15:39:59;24.30;35.80
66140;DHT22;52945;51.908;8.364;2023-07-02T15:43:00;24.40;36.00
66140;DHT22;52945;51.908;8.364;2023-07-02T15:46:00;24.40;35.40
66140;DHT22;52945;51.908;8.364;2023-07-02T15:49:01;24.50;36.00
66140;DHT22;52945;51.908;8.364;2023-07-02T15:52:02;24.40;36.80
66140;DHT22;52945;51.908;8.364;2023-07-02T15:55:03;24.20;37.00
66140;DHT22;52945;51.908;8.364;2023-07-02T15:58:05;24.10;37.40
66140;DHT22;52945;51.908;8.364;2023-07-02T16:01:17;24.20;37.70
66140;DHT22;52945;51.908;8.364;2023-07-02T16:04:17;24.30;37.60
66140;DHT22;52945;51.908;8.364;2023-07-02T16:07:18;24.30;37.80
66140;DHT22;52945;51.908;8.364;2023-07-02T16:10:19;24.40;37.90
66140;DHT22;52945;51.908;8.364;2023-07-02T16:13:19;24.50;37.80
66140;DHT22;52945;51.908;8.364;2023-07-02T16:16:20;24.50;37.30
66140;DHT22;52945;51.908;8.364;2023-07-02T16:19:22;24.30;37.40
66140;DHT22;52945;51.908;8.364;2023-07-02T16:22:22;24.20;37.40
66140;DHT22;52945;51.908;8.364;2023-07-02T16:25:23;24.10;37.60
66140;DHT22;52945;51.908;8.364;2023-07-02T16:28:24;24.00;37.00
66140;DHT22;52945;51.908;8.364;2023-07-02T16:31:25;24.00;37.50
66140;DHT22;52945;51.908;8.364;2023-07-02T16:34:28;23.90;37.70
66140;DHT22;52945;51.908;8.364;2023-07-02T16:37:29;23.80;38.00
66140;DHT22;52945;51.908;8.364;2023-07-02T16:40:30;23.70;38.00
66140;DHT22;52945;51.908;8.364;2023-07-02T16:43:31;23.70;37.90
66140;DHT22;52945;51.908;8.364;2023-07-02T16:46:31;23.70;38.40
66140;DHT22;52945;51.908;8.364;2023-07-02T16:49:32;23.60;37.70
66140;DHT22;52945;51.908;8.364;2023-07-02T16:52:33;23.60;37.50
66140;DHT22;52945;51.908;8.364;2023-07-02T16:55:36;23.60;37.10
66140;DHT22;52945;51.908;8.364;2023-07-02T16:58:39;23.70;37.30
66140;DHT22;52945;51.908;8.364;2023-07-02T17:01:39;23.70;37.40
66140;DHT22;52945;51.908;8.364;2023-07-02T17:04:40;23.70;37.50
66140;DHT22;52945;51.908;8.364;2023-07-02T17:07:41;23.70;37.40
66140;DHT22;52945;51.908;8.364;2023-07-02T17:10:41;23.80;37.50
66140;DHT22;52945;51.908;8.364;2023-07-02T17:13:42;23.80;37.60
66140;DHT22;52945;51.908;8.364;2023-07-02T17:16:42;23.90;38.20
66140;DHT22;52945;51.908;8.364;2023-07-02T17:19:45;24.00;38.20
66140;DHT22;52945;51.908;8.364;2023-07-02T17:22:46;24.00;37.80
66140;DHT22;52945;51.908;8.364;2023-07-02T17:25:47;24.00;37.90
66140;DHT22;52945;51.908;8.364;2023-07-02T17:28:47;24.00;37.90
66140;DHT22;52945;51.908;8.364;2023-07-02T17:31:53;24.00;37.80
66140;DHT22;52945;51.908;8.364;2023-07-02T17:34:55;23.90;38.10
66140;DHT22;52945;51.908;8.364;2023-07-02T17:37:55;23.90;37.70
66140;DHT22;52945;51.908;8.364;2023-07-02T17:40:56;23.80;37.80
66140;DHT22;52945;51.908;8.364;2023-07-02T17:43:56;23.80;38.30
66140;DHT22;52945;51.908;8.364;2023-07-02T17:47:00;23.80;38.10
66140;DHT22;52945;51.908;8.364;2023-07-02T17:50:01;23.70;38.30
66140;DHT22;52945;51.908;8.364;2023-07-02T17:53:01;23.70;37.80
66140;DHT22;52945;51.908;8.364;2023-07-02T17:56:02;23.50;37.60
66140;DHT22;52945;51.908;8.364;2023-07-02T17:59:03;23.40;37.80
66140;DHT22;52945;51.908;8.364;2023-07-02T18:02:05;23.40;38.20
66140;DHT22;52945;51.908;8.364;2023-07-02T18:05:06;23.40;38.40
66140;DHT22;52945;51.908;8.364;2023-07-02T18:08:06;23.30;38.20
66140;DHT22;52945;51.908;8.364;2023-07-02T18:11:09;23.30;38.60
66140;DHT22;52945;51.908;8.364;2023-07-02T18:14:10;23.20;38.40
66140;DHT22;52945;51.908;8.364;2023-07-02T18:17:11;23.20;38.60
66140;DHT22;52945;51.908;8.364;2023-07-02T18:20:12;23.20;38.50
66140;DHT22;52945;51.908;8.364;2023-07-02T18:23:16;23.20;38.80
66140;DHT22;52945;51.908;8.364;2023-07-02T18:26:17;23.20;39.00
66140;DHT22;52945;51.908;8.364;2023-07-02T18:29:17;23.10;39.00
66140;DHT22;52945;51.908;8.364;2023-07-02T18:32:18;23.10;38.80
66140;DHT22;52945;51.908;8.364;2023-07-02T18:35:19;23.00;38.70
66140;DHT22;52945;51.908;8.364;2023-07-02T18:38:20;23.00;38.90
66140;DHT22;52945;51.908;8.364;2023-07-02T18:41:20;22.90;39.00
66140;DHT22;52945;51.908;8.364;2023-07-02T18:44:21;22.90;39.00
66140;DHT22;52945;51.908;8.364;2023-07-02T18:47:21;22.90;39.20
66140;DHT22;52945;51.908;8.364;2023-07-02T18:50:22;22.80;39.90
66140;DHT22;52945;51.908;8.364;2023-07-02T18:53:24;22.80;39.80
66140;DHT22;52945;51.908;8.364;2023-07-02T18:56:25;22.70;39.10
66140;DHT22;52945;51.908;8.364;2023-07-02T18:59:26;22.70;39.50
66140;DHT22;52945;51.908;8.364;2023-07-02T19:02:28;22.60;39.80
66140;DHT22;52945;51.908;8.364;2023-07-02T19:05:29;22.50;39.90